sensor_id;sensor_type;location;lat;lon;timestamp;P1;durP1;ratioP1;P2;durP2;ratioP2
45618;SDS011;31343;47.520;19.144;2023-02-15T00:01:41;58.08;;;30.38;;
45618;SDS011;31343;47.520;19.144;2023-02-15T00:04:08;60.50;;;30.10;;
45618;SDS011;31343;47.520;19.144;2023-02-15T00:06:34;55.88;;;30.33;;
45618;SDS011;31343;47.520;19.144;2023-02-15T00:09:00;65.78;;;30.27;;
45618;SDS011;31343;47.520;19.144;2023-02-15T00:11:27;60.03;;;31.25;;
45618;SDS011;31343;47.520;19.144;2023-02-15T00:14:10;63.08;;;33.03;;
45618;SDS011;31343;47.520;19.144;2023-02-15T00:16:41;63.72;;;31.55;;
45618;SDS011;31343;47.520;19.144;2023-02-15T00:19:09;61.25;;;30.33;;
45618;SDS011;31343;47.520;19.144;2023-02-15T00:21:36;65.97;;;32.53;;
45618;SDS011;31343;47.520;19.144;2023-02-15T00:24:04;54.08;;;29.65;;
45618;SDS011;31343;47.520;19.144;2023-02-15T00:26:31;58.78;;;30.95;;
45618;SDS011;31343;47.520;19.144;2023-02-15T00:28:57;63.67;;;28.60;;
45618;SDS011;31343;47.520;19.144;2023-02-15T00:31:25;66.72;;;33.65;;
45618;SDS011;31343;47.520;19.144;2023-02-15T00:33:52;68.25;;;31.45;;
45618;SDS011;31343;47.520;19.144;2023-02-15T00:36:18;67.05;;;32.17;;
45618;SDS011;31343;47.520;19.144;2023-02-15T00:38:44;62.47;;;31.48;;
45618;SDS011;31343;47.520;19.144;2023-02-15T00:41:10;55.38;;;27.98;;
45618;SDS011;31343;47.520;19.144;2023-02-15T00:43:36;65.30;;;30.88;;
45618;SDS011;31343;47.520;19.144;2023-02-15T00:46:02;60.53;;;28.67;;
45618;SDS011;31343;47.520;19.144;2023-02-15T00:48:30;61.47;;;30.90;;
45618;SDS011;31343;47.520;19.144;2023-02-15T00:50:56;60.67;;;29.42;;
45618;SDS011;31343;47.520;19.144;2023-02-15T00:53:24;64.82;;;28.92;;
45618;SDS011;31343;47.520;19.144;2023-02-15T00:55:51;58.10;;;29.08;;
45618;SDS011;31343;47.520;19.144;2023-02-15T00:58:17;56.58;;;29.17;;
45618;SDS011;31343;47.520;19.144;2023-02-15T01:00:43;54.47;;;29.38;;
45618;SDS011;31343;47.520;19.144;2023-02-15T01:03:11;52.88;;;29.42;;
45618;SDS011;31343;47.520;19.144;2023-02-15T01:05:38;55.88;;;29.00;;
45618;SDS011;31343;47.520;19.144;2023-02-15T01:08:04;59.90;;;28.17;;
45618;SDS011;31343;47.520;19.144;2023-02-15T01:10:30;64.40;;;29.85;;
45618;SDS011;31343;47.520;19.144;2023-02-15T01:12:56;56.63;;;30.88;;
45618;SDS011;31343;47.520;19.144;2023-02-15T01:15:24;60.38;;;29.30;;
45618;SDS011;31343;47.520;19.144;2023-02-15T01:17:50;66.50;;;30.60;;
45618;SDS011;31343;47.520;19.144;2023-02-15T01:20:19;76.30;;;37.55;;
45618;SDS011;31343;47.520;19.144;2023-02-15T01:22:49;77.57;;;34.92;;
45618;SDS011;31343;47.520;19.144;2023-02-15T01:25:17;65.13;;;32.20;;
45618;SDS011;31343;47.520;19.144;2023-02-15T01:27:44;64.40;;;30.10;;
45618;SDS011;31343;47.520;19.144;2023-02-15T01:30:10;77.63;;;31.50;;
45618;SDS011;31343;47.520;19.144;2023-02-15T01:32:38;77.40;;;34.95;;
45618;SDS011;31343;47.520;19.144;2023-02-15T01:35:04;83.13;;;35.55;;
45618;SDS011;31343;47.520;19.144;2023-02-15T01:37:31;90.28;;;38.95;;
45618;SDS011;31343;47.520;19.144;2023-02-15T01:39:57;77.30;;;34.45;;
45618;SDS011;31343;47.520;19.144;2023-02-15T01:42:25;79.03;;;37.08;;
45618;SDS011;31343;47.520;19.144;2023-02-15T01:44:53;73.38;;;33.83;;
45618;SDS011;31343;47.520;19.144;2023-02-15T01:47:40;78.07;;;34.78;;
45618;SDS011;31343;47.520;19.144;2023-02-15T01:50:16;78.15;;;34.60;;
45618;SDS011;31343;47.520;19.144;2023-02-15T01:52:49;83.47;;;36.67;;
45618;SDS011;31343;47.520;19.144;2023-02-15T01:55:20;74.00;;;32.72;;
45618;SDS011;31343;47.520;19.144;2023-02-15T01:57:48;57.22;;;30.17;;
45618;SDS011;31343;47.520;19.144;2023-02-15T02:00:15;74.03;;;32.78;;
45618;SDS011;31343;47.520;19.144;2023-02-15T02:02:42;81.50;;;33.75;;
45618;SDS011;31343;47.520;19.144;2023-02-15T02:05:10;84.75;;;36.78;;
45618;SDS011;31343;47.520;19.144;2023-02-15T02:07:40;67.47;;;31.42;;
45618;SDS011;31343;47.520;19.144;2023-02-15T02:10:10;60.97;;;30.17;;
45618;SDS011;31343;47.520;19.144;2023-02-15T02:12:41;64.13;;;31.60;;
45618;SDS011;31343;47.520;19.144;2023-02-15T02:15:09;69.45;;;33.83;;
45618;SDS011;31343;47.520;19.144;2023-02-15T02:20:17;67.05;;;31.92;;
45618;SDS011;31343;47.520;19.144;2023-02-15T02:23:10;70.78;;;30.77;;
45618;SDS011;31343;47.520;19.144;2023-02-15T02:25:59;76.57;;;35.67;;
45618;SDS011;31343;47.520;19.144;2023-02-15T02:36:49;63.45;;;30.20;;
45618;SDS011;31343;47.520;19.144;2023-02-15T02:39:46;74.60;;;33.67;;
45618;SDS011;31343;47.520;19.144;2023-02-15T02:42:38;61.42;;;31.20;;
45618;SDS011;31343;47.520;19.144;2023-02-15T02:45:25;60.45;;;31.05;;
45618;SDS011;31343;47.520;19.144;2023-02-15T02:48:01;66.90;;;32.05;;
45618;SDS011;31343;47.520;19.144;2023-02-15T02:50:33;57.40;;;29.92;;
45618;SDS011;31343;47.520;19.144;2023-02-15T02:52:59;58.40;;;27.83;;
45618;SDS011;31343;47.520;19.144;2023-02-15T02:55:27;59.42;;;30.70;;
45618;SDS011;31343;47.520;19.144;2023-02-15T02:58:09;59.10;;;28.88;;
45618;SDS011;31343;47.520;19.144;2023-02-15T03:03:14;54.92;;;29.50;;
45618;SDS011;31343;47.520;19.144;2023-02-15T03:05:46;55.75;;;28.45;;
45618;SDS011;31343;47.520;19.144;2023-02-15T03:08:14;56.22;;;27.52;;
45618;SDS011;31343;47.520;19.144;2023-02-15T03:10:48;56.85;;;28.83;;
45618;SDS011;31343;47.520;19.144;2023-02-15T03:13:18;57.75;;;27.67;;
45618;SDS011;31343;47.520;19.144;2023-02-15T03:15:44;47.88;;;28.52;;
45618;SDS011;31343;47.520;19.144;2023-02-15T03:18:39;59.75;;;30.23;;
45618;SDS011;31343;47.520;19.144;2023-02-15T03:21:19;53.63;;;29.65;;
45618;SDS011;31343;47.520;19.144;2023-02-15T03:23:53;54.05;;;28.00;;
45618;SDS011;31343;47.520;19.144;2023-02-15T03:26:24;55.88;;;28.27;;
45618;SDS011;31343;47.520;19.144;2023-02-15T03:28:52;49.75;;;27.95;;
45618;SDS011;31343;47.520;19.144;2023-02-15T03:31:20;52.63;;;27.05;;
45618;SDS011;31343;47.520;19.144;2023-02-15T03:33:55;50.33;;;25.70;;
45618;SDS011;31343;47.520;19.144;2023-02-15T03:42:10;44.85;;;25.30;;
45618;SDS011;31343;47.520;19.144;2023-02-15T03:45:03;46.60;;;25.25;;
45618;SDS011;31343;47.520;19.144;2023-02-15T03:47:31;49.00;;;25.40;;
45618;SDS011;31343;47.520;19.144;2023-02-15T03:50:05;50.10;;;26.80;;
45618;SDS011;31343;47.520;19.144;2023-02-15T03:52:57;41.65;;;24.05;;
45618;SDS011;31343;47.520;19.144;2023-02-15T03:55:25;43.78;;;25.60;;
45618;SDS011;31343;47.520;19.144;2023-02-15T03:57:52;54.50;;;26.75;;
45618;SDS011;31343;47.520;19.144;2023-02-15T04:00:37;47.78;;;24.48;;
45618;SDS011;31343;47.520;19.144;2023-02-15T04:03:40;55.20;;;26.17;;
45618;SDS011;31343;47.520;19.144;2023-02-15T04:06:10;42.55;;;23.38;;
45618;SDS011;31343;47.520;19.144;2023-02-15T04:08:36;45.65;;;25.30;;
45618;SDS011;31343;47.520;19.144;2023-02-15T04:11:21;46.30;;;25.20;;
45618;SDS011;31343;47.520;19.144;2023-02-15T04:13:46;49.75;;;25.70;;
45618;SDS011;31343;47.520;19.144;2023-02-15T04:16:12;51.15;;;24.85;;
45618;SDS011;31343;47.520;19.144;2023-02-15T04:18:40;44.92;;;25.23;;
45618;SDS011;31343;47.520;19.144;2023-02-15T04:21:27;47.20;;;25.25;;
45618;SDS011;31343;47.520;19.144;2023-02-15T04:24:12;42.55;;;23.00;;
45618;SDS011;31343;47.520;19.144;2023-02-15T04:26:57;47.58;;;24.50;;
45618;SDS011;31343;47.520;19.144;2023-02-15T04:29:24;50.38;;;24.55;;
45618;SDS011;31343;47.520;19.144;2023-02-15T04:31:52;49.22;;;26.35;;
45618;SDS011;31343;47.520;19.144;2023-02-15T04:34:19;53.25;;;25.05;;
45618;SDS011;31343;47.520;19.144;2023-02-15T04:36:45;54.03;;;25.08;;
45618;SDS011;31343;47.520;19.144;2023-02-15T04:39:14;50.67;;;25.60;;
45618;SDS011;31343;47.520;19.144;2023-02-15T04:41:42;49.03;;;25.67;;
45618;SDS011;31343;47.520;19.144;2023-02-15T04:44:09;48.10;;;24.25;;
45618;SDS011;31343;47.520;19.144;2023-02-15T04:46:35;51.75;;;25.85;;
45618;SDS011;31343;47.520;19.144;2023-02-15T04:49:01;46.08;;;23.55;;
45618;SDS011;31343;47.520;19.144;2023-02-15T04:51:27;44.85;;;23.38;;
45618;SDS011;31343;47.520;19.144;2023-02-15T04:53:53;48.13;;;25.63;;
45618;SDS011;31343;47.520;19.144;2023-02-15T04:56:19;51.53;;;27.23;;
45618;SDS011;31343;47.520;19.144;2023-02-15T04:58:48;45.28;;;25.25;;
45618;SDS011;31343;47.520;19.144;2023-02-15T05:01:14;45.25;;;23.60;;
45618;SDS011;31343;47.520;19.144;2023-02-15T05:03:40;52.85;;;25.63;;
45618;SDS011;31343;47.520;19.144;2023-02-15T05:06:06;45.15;;;24.25;;
45618;SDS011;31343;47.520;19.144;2023-02-15T05:08:32;50.75;;;29.02;;
45618;SDS011;31343;47.520;19.144;2023-02-15T05:10:58;57.05;;;25.70;;
45618;SDS011;31343;47.520;19.144;2023-02-15T05:13:24;48.75;;;25.65;;
45618;SDS011;31343;47.520;19.144;2023-02-15T05:15:52;47.38;;;23.15;;
45618;SDS011;31343;47.520;19.144;2023-02-15T05:18:19;53.90;;;24.48;;
45618;SDS011;31343;47.520;19.144;2023-02-15T05:20:46;46.38;;;24.17;;
45618;SDS011;31343;47.520;19.144;2023-02-15T05:23:12;48.38;;;23.48;;
45618;SDS011;31343;47.520;19.144;2023-02-15T05:25:38;45.58;;;23.17;;
45618;SDS011;31343;47.520;19.144;2023-02-15T05:28:24;50.20;;;24.23;;
45618;SDS011;31343;47.520;19.144;2023-02-15T05:31:13;52.92;;;27.40;;
45618;SDS011;31343;47.520;19.144;2023-02-15T05:33:39;45.30;;;23.20;;
45618;SDS011;31343;47.520;19.144;2023-02-15T05:36:06;38.47;;;24.08;;
45618;SDS011;31343;47.520;19.144;2023-02-15T05:38:32;44.42;;;22.83;;
45618;SDS011;31343;47.520;19.144;2023-02-15T05:40:59;45.80;;;23.88;;
45618;SDS011;31343;47.520;19.144;2023-02-15T05:43:25;45.17;;;22.85;;
45618;SDS011;31343;47.520;19.144;2023-02-15T05:45:52;45.67;;;22.48;;
45618;SDS011;31343;47.520;19.144;2023-02-15T05:48:18;42.33;;;24.02;;
45618;SDS011;31343;47.520;19.144;2023-02-15T05:50:46;44.95;;;23.48;;
45618;SDS011;31343;47.520;19.144;2023-02-15T05:53:12;43.42;;;24.67;;
45618;SDS011;31343;47.520;19.144;2023-02-15T05:55:38;43.03;;;23.95;;
45618;SDS011;31343;47.520;19.144;2023-02-15T05:58:05;40.33;;;22.02;;
45618;SDS011;31343;47.520;19.144;2023-02-15T06:00:31;42.60;;;23.48;;
45618;SDS011;31343;47.520;19.144;2023-02-15T06:02:57;46.10;;;24.67;;
45618;SDS011;31343;47.520;19.144;2023-02-15T06:05:23;52.53;;;25.58;;
45618;SDS011;31343;47.520;19.144;2023-02-15T06:07:48;50.92;;;25.75;;
45618;SDS011;31343;47.520;19.144;2023-02-15T06:10:15;53.70;;;26.27;;
45618;SDS011;31343;47.520;19.144;2023-02-15T06:12:41;53.97;;;27.73;;
45618;SDS011;31343;47.520;19.144;2023-02-15T06:15:08;62.47;;;26.77;;
45618;SDS011;31343;47.520;19.144;2023-02-15T06:17:34;58.08;;;27.13;;
45618;SDS011;31343;47.520;19.144;2023-02-15T06:20:00;57.92;;;28.27;;
45618;SDS011;31343;47.520;19.144;2023-02-15T06:22:25;55.28;;;26.83;;
45618;SDS011;31343;47.520;19.144;2023-02-15T06:24:51;53.22;;;26.63;;
45618;SDS011;31343;47.520;19.144;2023-02-15T06:27:17;59.75;;;26.50;;
45618;SDS011;31343;47.520;19.144;2023-02-15T06:29:42;50.40;;;26.50;;
45618;SDS011;31343;47.520;19.144;2023-02-15T06:32:08;50.33;;;27.63;;
45618;SDS011;31343;47.520;19.144;2023-02-15T06:34:34;48.80;;;25.15;;
45618;SDS011;31343;47.520;19.144;2023-02-15T06:37:00;43.47;;;25.23;;
45618;SDS011;31343;47.520;19.144;2023-02-15T06:39:25;50.55;;;26.40;;
45618;SDS011;31343;47.520;19.144;2023-02-15T06:41:52;46.33;;;24.75;;
45618;SDS011;31343;47.520;19.144;2023-02-15T06:44:18;41.20;;;23.98;;
45618;SDS011;31343;47.520;19.144;2023-02-15T06:46:43;48.67;;;24.92;;
45618;SDS011;31343;47.520;19.144;2023-02-15T06:49:09;47.60;;;22.73;;
45618;SDS011;31343;47.520;19.144;2023-02-15T06:51:35;44.55;;;24.75;;
45618;SDS011;31343;47.520;19.144;2023-02-15T06:54:02;37.90;;;23.83;;
45618;SDS011;31343;47.520;19.144;2023-02-15T06:56:29;45.45;;;25.48;;
45618;SDS011;31343;47.520;19.144;2023-02-15T06:58:55;41.05;;;24.23;;
45618;SDS011;31343;47.520;19.144;2023-02-15T07:01:21;42.05;;;22.70;;
45618;SDS011;31343;47.520;19.144;2023-02-15T07:03:47;42.00;;;23.90;;
45618;SDS011;31343;47.520;19.144;2023-02-15T07:06:13;39.28;;;23.35;;
45618;SDS011;31343;47.520;19.144;2023-02-15T07:08:38;35.72;;;22.10;;
45618;SDS011;31343;47.520;19.144;2023-02-15T07:11:05;40.50;;;25.60;;
45618;SDS011;31343;47.520;19.144;2023-02-15T07:13:50;34.58;;;21.42;;
45618;SDS011;31343;47.520;19.144;2023-02-15T07:16:17;46.15;;;24.85;;
45618;SDS011;31343;47.520;19.144;2023-02-15T07:18:43;37.00;;;23.17;;
45618;SDS011;31343;47.520;19.144;2023-02-15T07:21:09;38.45;;;23.42;;
45618;SDS011;31343;47.520;19.144;2023-02-15T07:23:38;40.42;;;24.60;;
45618;SDS011;31343;47.520;19.144;2023-02-15T07:26:05;34.20;;;22.85;;
45618;SDS011;31343;47.520;19.144;2023-02-15T07:28:33;33.60;;;20.15;;
45618;SDS011;31343;47.520;19.144;2023-02-15T07:31:02;34.42;;;21.55;;
45618;SDS011;31343;47.520;19.144;2023-02-15T07:33:30;32.03;;;19.77;;
45618;SDS011;31343;47.520;19.144;2023-02-15T07:35:58;34.78;;;20.90;;
45618;SDS011;31343;47.520;19.144;2023-02-15T07:38:26;34.63;;;20.98;;
45618;SDS011;31343;47.520;19.144;2023-02-15T07:41:01;31.67;;;20.10;;
45618;SDS011;31343;47.520;19.144;2023-02-15T07:43:33;34.55;;;21.15;;
45618;SDS011;31343;47.520;19.144;2023-02-15T07:46:02;31.98;;;19.65;;
45618;SDS011;31343;47.520;19.144;2023-02-15T07:48:29;34.80;;;20.45;;
45618;SDS011;31343;47.520;19.144;2023-02-15T07:50:58;35.92;;;19.98;;
45618;SDS011;31343;47.520;19.144;2023-02-15T07:53:24;28.25;;;18.45;;
45618;SDS011;31343;47.520;19.144;2023-02-15T07:55:50;31.13;;;19.92;;
45618;SDS011;31343;47.520;19.144;2023-02-15T07:58:17;35.47;;;19.38;;
45618;SDS011;31343;47.520;19.144;2023-02-15T08:00:43;34.22;;;19.67;;
45618;SDS011;31343;47.520;19.144;2023-02-15T08:03:25;32.22;;;19.30;;
45618;SDS011;31343;47.520;19.144;2023-02-15T08:05:57;33.08;;;18.73;;
45618;SDS011;31343;47.520;19.144;2023-02-15T08:08:30;34.65;;;20.55;;
45618;SDS011;31343;47.520;19.144;2023-02-15T08:13:59;33.95;;;17.88;;
45618;SDS011;31343;47.520;19.144;2023-02-15T08:16:37;35.63;;;19.85;;
45618;SDS011;31343;47.520;19.144;2023-02-15T08:19:12;33.17;;;19.48;;
45618;SDS011;31343;47.520;19.144;2023-02-15T08:21:42;38.80;;;20.83;;
45618;SDS011;31343;47.520;19.144;2023-02-15T08:24:09;33.08;;;19.23;;
45618;SDS011;31343;47.520;19.144;2023-02-15T08:26:36;33.78;;;18.48;;
45618;SDS011;31343;47.520;19.144;2023-02-15T08:29:03;31.65;;;19.00;;
45618;SDS011;31343;47.520;19.144;2023-02-15T08:31:30;33.70;;;18.83;;
45618;SDS011;31343;47.520;19.144;2023-02-15T08:33:56;33.75;;;18.40;;
45618;SDS011;31343;47.520;19.144;2023-02-15T08:36:24;34.90;;;19.98;;
45618;SDS011;31343;47.520;19.144;2023-02-15T08:38:54;35.80;;;20.42;;
45618;SDS011;31343;47.520;19.144;2023-02-15T08:41:23;38.45;;;21.88;;
45618;SDS011;31343;47.520;19.144;2023-02-15T08:43:54;35.75;;;19.25;;
45618;SDS011;31343;47.520;19.144;2023-02-15T08:46:25;33.03;;;18.77;;
45618;SDS011;31343;47.520;19.144;2023-02-15T08:48:55;32.30;;;18.52;;
45618;SDS011;31343;47.520;19.144;2023-02-15T08:51:22;37.47;;;20.98;;
45618;SDS011;31343;47.520;19.144;2023-02-15T08:53:51;35.33;;;20.95;;
45618;SDS011;31343;47.520;19.144;2023-02-15T08:56:20;30.90;;;19.30;;
45618;SDS011;31343;47.520;19.144;2023-02-15T08:58:47;41.03;;;21.60;;
45618;SDS011;31343;47.520;19.144;2023-02-15T09:01:15;40.17;;;20.42;;
45618;SDS011;31343;47.520;19.144;2023-02-15T09:03:43;38.75;;;19.75;;
45618;SDS011;31343;47.520;19.144;2023-02-15T09:06:10;39.35;;;21.42;;
45618;SDS011;31343;47.520;19.144;2023-02-15T09:08:36;35.75;;;20.00;;
45618;SDS011;31343;47.520;19.144;2023-02-15T09:13:36;41.85;;;21.95;;
45618;SDS011;31343;47.520;19.144;2023-02-15T09:16:03;36.15;;;20.92;;
45618;SDS011;31343;47.520;19.144;2023-02-15T09:18:32;39.35;;;21.27;;
45618;SDS011;31343;47.520;19.144;2023-02-15T09:21:06;36.05;;;20.55;;
45618;SDS011;31343;47.520;19.144;2023-02-15T09:23:39;37.60;;;22.08;;
45618;SDS011;31343;47.520;19.144;2023-02-15T09:26:09;41.35;;;20.98;;
45618;SDS011;31343;47.520;19.144;2023-02-15T09:28:37;35.40;;;19.60;;
45618;SDS011;31343;47.520;19.144;2023-02-15T09:31:11;33.70;;;17.73;;
45618;SDS011;31343;47.520;19.144;2023-02-15T09:33:39;30.77;;;13.75;;
45618;SDS011;31343;47.520;19.144;2023-02-15T09:36:12;21.73;;;12.05;;
45618;SDS011;31343;47.520;19.144;2023-02-15T09:39:35;24.85;;;13.25;;
45618;SDS011;31343;47.520;19.144;2023-02-15T09:55:20;28.77;;;15.18;;
45618;SDS011;31343;47.520;19.144;2023-02-15T10:06:05;30.10;;;15.18;;
45618;SDS011;31343;47.520;19.144;2023-02-15T10:31:23;26.35;;;14.57;;
45618;SDS011;31343;47.520;19.144;2023-02-15T10:34:04;26.63;;;15.27;;
45618;SDS011;31343;47.520;19.144;2023-02-15T10:37:13;26.35;;;14.07;;
45618;SDS011;31343;47.520;19.144;2023-02-15T10:56:21;24.60;;;13.43;;
45618;SDS011;31343;47.520;19.144;2023-02-15T11:01:42;23.90;;;13.25;;
45618;SDS011;31343;47.520;19.144;2023-02-15T11:07:20;23.52;;;13.57;;
45618;SDS011;31343;47.520;19.144;2023-02-15T11:13:02;23.23;;;13.55;;
45618;SDS011;31343;47.520;19.144;2023-02-15T11:15:35;25.60;;;13.68;;
45618;SDS011;31343;47.520;19.144;2023-02-15T11:18:08;25.30;;;14.02;;
45618;SDS011;31343;47.520;19.144;2023-02-15T11:20:36;28.48;;;15.48;;
45618;SDS011;31343;47.520;19.144;2023-02-15T11:23:14;25.10;;;14.88;;
45618;SDS011;31343;47.520;19.144;2023-02-15T11:25:44;29.23;;;15.68;;
45618;SDS011;31343;47.520;19.144;2023-02-15T11:28:18;27.88;;;15.00;;
45618;SDS011;31343;47.520;19.144;2023-02-15T11:30:54;25.05;;;14.55;;
45618;SDS011;31343;47.520;19.144;2023-02-15T11:33:27;25.15;;;13.77;;
45618;SDS011;31343;47.520;19.144;2023-02-15T11:38:34;28.95;;;15.38;;
45618;SDS011;31343;47.520;19.144;2023-02-15T11:41:02;26.77;;;14.30;;
45618;SDS011;31343;47.520;19.144;2023-02-15T11:43:37;27.20;;;15.25;;
45618;SDS011;31343;47.520;19.144;2023-02-15T11:46:13;24.02;;;15.20;;
45618;SDS011;31343;47.520;19.144;2023-02-15T11:48:40;26.38;;;15.35;;
45618;SDS011;31343;47.520;19.144;2023-02-15T11:51:17;29.27;;;16.08;;
45618;SDS011;31343;47.520;19.144;2023-02-15T11:53:45;26.98;;;14.75;;
45618;SDS011;31343;47.520;19.144;2023-02-15T11:56:13;23.23;;;13.77;;
45618;SDS011;31343;47.520;19.144;2023-02-15T12:03:49;26.17;;;14.80;;
45618;SDS011;31343;47.520;19.144;2023-02-15T12:06:31;27.25;;;15.38;;
45618;SDS011;31343;47.520;19.144;2023-02-15T12:11:50;26.90;;;14.82;;
45618;SDS011;31343;47.520;19.144;2023-02-15T12:14:16;21.23;;;13.52;;
45618;SDS011;31343;47.520;19.144;2023-02-15T12:21:55;24.80;;;14.57;;
45618;SDS011;31343;47.520;19.144;2023-02-15T12:24:44;30.48;;;18.27;;
45618;SDS011;31343;47.520;19.144;2023-02-15T12:27:16;26.40;;;17.58;;
45618;SDS011;31343;47.520;19.144;2023-02-15T12:29:46;29.10;;;17.33;;
45618;SDS011;31343;47.520;19.144;2023-02-15T12:32:19;28.45;;;16.85;;
45618;SDS011;31343;47.520;19.144;2023-02-15T12:35:02;21.63;;;13.93;;
45618;SDS011;31343;47.520;19.144;2023-02-15T12:37:34;23.48;;;13.15;;
45618;SDS011;31343;47.520;19.144;2023-02-15T12:40:02;22.00;;;13.40;;
45618;SDS011;31343;47.520;19.144;2023-02-15T12:42:44;23.17;;;14.35;;
45618;SDS011;31343;47.520;19.144;2023-02-15T12:45:21;22.70;;;15.15;;
45618;SDS011;31343;47.520;19.144;2023-02-15T12:50:52;22.33;;;13.50;;
45618;SDS011;31343;47.520;19.144;2023-02-15T12:53:35;26.27;;;15.13;;
45618;SDS011;31343;47.520;19.144;2023-02-15T12:56:02;25.00;;;15.73;;
45618;SDS011;31343;47.520;19.144;2023-02-15T12:58:31;25.80;;;14.95;;
45618;SDS011;31343;47.520;19.144;2023-02-15T13:01:09;24.63;;;15.52;;
45618;SDS011;31343;47.520;19.144;2023-02-15T13:04:00;26.17;;;16.77;;
45618;SDS011;31343;47.520;19.144;2023-02-15T13:06:34;25.58;;;15.02;;
45618;SDS011;31343;47.520;19.144;2023-02-15T13:09:13;29.63;;;17.23;;
45618;SDS011;31343;47.520;19.144;2023-02-15T13:11:42;23.58;;;16.17;;
45618;SDS011;31343;47.520;19.144;2023-02-15T13:14:16;26.88;;;16.45;;
45618;SDS011;31343;47.520;19.144;2023-02-15T13:16:48;29.88;;;17.17;;
45618;SDS011;31343;47.520;19.144;2023-02-15T13:19:29;22.23;;;15.13;;
45618;SDS011;31343;47.520;19.144;2023-02-15T13:22:02;28.08;;;18.05;;
45618;SDS011;31343;47.520;19.144;2023-02-15T13:24:36;30.45;;;18.45;;
45618;SDS011;31343;47.520;19.144;2023-02-15T13:27:16;29.73;;;18.07;;
45618;SDS011;31343;47.520;19.144;2023-02-15T13:29:53;27.60;;;17.63;;
45618;SDS011;31343;47.520;19.144;2023-02-15T13:34:56;33.47;;;19.52;;
45618;SDS011;31343;47.520;19.144;2023-02-15T13:37:35;28.42;;;16.50;;
45618;SDS011;31343;47.520;19.144;2023-02-15T13:40:37;31.38;;;17.27;;
45618;SDS011;31343;47.520;19.144;2023-02-15T13:53:57;30.92;;;16.67;;
45618;SDS011;31343;47.520;19.144;2023-02-15T13:59:31;30.38;;;17.67;;
45618;SDS011;31343;47.520;19.144;2023-02-15T14:05:39;24.70;;;14.40;;
45618;SDS011;31343;47.520;19.144;2023-02-15T14:14:05;23.48;;;13.80;;
45618;SDS011;31343;47.520;19.144;2023-02-15T14:17:07;23.85;;;13.20;;
45618;SDS011;31343;47.520;19.144;2023-02-15T14:19:51;25.13;;;13.95;;
45618;SDS011;31343;47.520;19.144;2023-02-15T14:22:25;31.42;;;17.85;;
45618;SDS011;31343;47.520;19.144;2023-02-15T14:25:14;27.75;;;15.43;;
45618;SDS011;31343;47.520;19.144;2023-02-15T14:27:56;28.33;;;15.18;;
45618;SDS011;31343;47.520;19.144;2023-02-15T14:30:34;25.48;;;13.55;;
45618;SDS011;31343;47.520;19.144;2023-02-15T14:35:56;28.27;;;14.88;;
45618;SDS011;31343;47.520;19.144;2023-02-15T14:39:06;29.52;;;16.58;;
45618;SDS011;31343;47.520;19.144;2023-02-15T14:41:45;25.20;;;15.27;;
45618;SDS011;31343;47.520;19.144;2023-02-15T14:46:49;29.38;;;15.38;;
45618;SDS011;31343;47.520;19.144;2023-02-15T14:52:00;28.40;;;14.88;;
45618;SDS011;31343;47.520;19.144;2023-02-15T14:59:27;28.55;;;16.77;;
45618;SDS011;31343;47.520;19.144;2023-02-15T15:02:10;29.55;;;16.00;;
45618;SDS011;31343;47.520;19.144;2023-02-15T15:05:02;33.83;;;17.77;;
45618;SDS011;31343;47.520;19.144;2023-02-15T15:07:38;32.92;;;16.95;;
45618;SDS011;31343;47.520;19.144;2023-02-15T15:12:44;29.75;;;17.13;;
45618;SDS011;31343;47.520;19.144;2023-02-15T15:15:11;33.97;;;17.80;;
45618;SDS011;31343;47.520;19.144;2023-02-15T15:18:01;30.75;;;15.85;;
45618;SDS011;31343;47.520;19.144;2023-02-15T15:20:39;29.85;;;16.98;;
45618;SDS011;31343;47.520;19.144;2023-02-15T15:31:09;32.45;;;17.02;;
45618;SDS011;31343;47.520;19.144;2023-02-15T15:36:45;35.20;;;17.38;;
45618;SDS011;31343;47.520;19.144;2023-02-15T15:42:31;34.65;;;19.25;;
45618;SDS011;31343;47.520;19.144;2023-02-15T15:50:25;30.17;;;17.00;;
45618;SDS011;31343;47.520;19.144;2023-02-15T15:52:55;28.38;;;15.68;;
45618;SDS011;31343;47.520;19.144;2023-02-15T15:55:25;30.02;;;16.98;;
45618;SDS011;31343;47.520;19.144;2023-02-15T15:57:53;30.88;;;16.63;;
45618;SDS011;31343;47.520;19.144;2023-02-15T16:00:33;31.85;;;16.65;;
45618;SDS011;31343;47.520;19.144;2023-02-15T16:03:27;33.45;;;17.40;;
45618;SDS011;31343;47.520;19.144;2023-02-15T16:05:53;36.08;;;17.48;;
45618;SDS011;31343;47.520;19.144;2023-02-15T16:08:37;31.85;;;16.60;;
45618;SDS011;31343;47.520;19.144;2023-02-15T16:11:12;35.97;;;17.35;;
45618;SDS011;31343;47.520;19.144;2023-02-15T16:13:41;35.55;;;17.60;;
45618;SDS011;31343;47.520;19.144;2023-02-15T16:16:08;34.53;;;17.77;;
45618;SDS011;31343;47.520;19.144;2023-02-15T16:18:34;30.90;;;17.27;;
45618;SDS011;31343;47.520;19.144;2023-02-15T16:21:03;36.95;;;18.55;;
45618;SDS011;31343;47.520;19.144;2023-02-15T16:29:15;44.17;;;18.13;;
45618;SDS011;31343;47.520;19.144;2023-02-15T16:31:43;31.45;;;16.95;;
45618;SDS011;31343;47.520;19.144;2023-02-15T16:34:20;30.67;;;16.30;;
45618;SDS011;31343;47.520;19.144;2023-02-15T16:36:46;30.27;;;16.95;;
45618;SDS011;31343;47.520;19.144;2023-02-15T16:39:18;32.03;;;17.80;;
45618;SDS011;31343;47.520;19.144;2023-02-15T16:41:45;32.22;;;16.88;;
45618;SDS011;31343;47.520;19.144;2023-02-15T16:44:21;36.30;;;16.92;;
45618;SDS011;31343;47.520;19.144;2023-02-15T16:46:50;31.48;;;16.80;;
45618;SDS011;31343;47.520;19.144;2023-02-15T16:49:22;35.85;;;17.90;;
45618;SDS011;31343;47.520;19.144;2023-02-15T16:51:57;35.08;;;18.23;;
45618;SDS011;31343;47.520;19.144;2023-02-15T16:54:26;37.70;;;19.15;;
45618;SDS011;31343;47.520;19.144;2023-02-15T16:56:53;38.65;;;20.45;;
45618;SDS011;31343;47.520;19.144;2023-02-15T16:59:28;40.50;;;19.65;;
45618;SDS011;31343;47.520;19.144;2023-02-15T17:04:44;39.90;;;19.45;;
45618;SDS011;31343;47.520;19.144;2023-02-15T17:07:19;34.75;;;17.92;;
45618;SDS011;31343;47.520;19.144;2023-02-15T17:09:52;34.97;;;18.35;;
45618;SDS011;31343;47.520;19.144;2023-02-15T17:15:25;43.10;;;20.35;;
45618;SDS011;31343;47.520;19.144;2023-02-15T17:17:54;37.88;;;20.55;;
45618;SDS011;31343;47.520;19.144;2023-02-15T17:20:27;34.42;;;17.85;;
45618;SDS011;31343;47.520;19.144;2023-02-15T17:22:53;33.65;;;18.90;;
45618;SDS011;31343;47.520;19.144;2023-02-15T17:25:23;41.15;;;18.30;;
45618;SDS011;31343;47.520;19.144;2023-02-15T17:27:57;38.15;;;19.17;;
45618;SDS011;31343;47.520;19.144;2023-02-15T17:30:33;57.20;;;24.48;;
45618;SDS011;31343;47.520;19.144;2023-02-15T17:33:03;38.33;;;18.17;;
45618;SDS011;31343;47.520;19.144;2023-02-15T17:35:50;32.58;;;17.50;;
45618;SDS011;31343;47.520;19.144;2023-02-15T17:41:26;37.10;;;19.23;;
45618;SDS011;31343;47.520;19.144;2023-02-15T17:44:03;40.97;;;18.75;;